Time;durP1;ratioP1;P1;durP2;ratioP2;P2;SDS_P1;SDS_P2;PMS_P1;PMS_P2;Temp;Humidity;BMP_temperature;BMP_pressure;BME280_temperature;BME280_humidity;BME280_pressure;Samples;Min_cycle;Max_cycle;Signal;HPM_P1;HPM_P2
2022/11/06 00:01:15;;;;;;;;;;;;;;;;;;5001404;28;19930;-84
2022/11/06 00:09:18;;;;;;;;;;;;;;;;;;5876656;23;19941;-89
2022/11/06 00:14:19;;;;;;;;;;;;;;;;;;5627837;23;19910;-89
2022/11/06 00:38:47;;;;;;;;;;;;;;;;;;5365603;23;19926;-84
2022/11/06 00:41:30;;;;;;;;;;;;;;;;;;4969677;28;19918;-83
2022/11/06 00:46:42;;;;;;;;;;;;;;;;;;4663940;26;19966;-84
2022/11/06 00:52:16;;;;;;;;;;;;;;;;;;5483832;23;19926;-85
2022/11/06 00:57:47;;;;;;;;;;;;;;;;;;4999670;28;19908;-83
2022/11/06 01:00:13;;;;;;;;;;;;;;;;;;4999771;28;19903;-83
2022/11/06 01:02:38;;;;;;;;;;;;;;;;;;4983151;28;19974;-83
2022/11/06 01:05:04;;;;;;;;;;;;;;;;;;4997491;28;20075;-83
2022/11/06 01:07:30;;;;;;;;;;;;;;;;;;5000267;28;19903;-83
2022/11/06 01:09:59;;;;;;;;;;;;;;;;;;5014820;28;19906;-83
2022/11/06 01:12:24;;;;;;;;;;;;;;;;;;4998987;28;19969;-83
2022/11/06 01:14:50;;;;;;;;;;;;;;;;;;4997935;28;19929;-81
2022/11/06 01:17:15;;;;;;;;;;;;;;;;;;4999240;28;19914;-83
2022/11/06 01:19:41;;;;;;;;;;;;;;;;;;4999476;28;19977;-82
2022/11/06 01:22:09;;;;;;;;;;;;;;;;;;5000238;28;19918;-82
2022/11/06 01:24:34;;;;;;;;;;;;;;;;;;4982674;28;19937;-83
2022/11/06 01:27:00;;;;;;;;;;;;;;;;;;4997700;28;19915;-83
2022/11/06 01:29:25;;;;;;;;;;;;;;;;;;5010722;28;19914;-83
2022/11/06 01:31:54;;;;;;;;;;;;;;;;;;5010975;28;19954;-84
2022/11/06 01:34:20;;;;;;;;;;;;;;;;;;4997459;28;19919;-83
2022/11/06 01:36:48;;;;;;;;;;;;;;;;;;4998733;28;19902;-87
2022/11/06 01:47:20;;;;;;;;;;;;;;;;;;5986105;23;19936;-84
2022/11/06 02:17:02;;;;;;;;;;;;;;;;;;5101034;23;19980;-82
2022/11/06 02:19:32;;;;;;;;;;;;;;;;;;5028168;28;19918;-83
2022/11/06 02:22:02;;;;;;;;;;;;;;;;;;5021957;28;19976;-83
2022/11/06 02:24:33;;;;;;;;;;;;;;;;;;5020960;28;19922;-84
2022/11/06 02:27:00;;;;;;;;;;;;;;;;;;5020882;28;19980;-84
2022/11/06 02:40:34;;;;;;;;;;;;;;;;;;5645843;23;19926;-83
2022/11/06 02:42:59;;;;;;;;;;;;;;;;;;5021942;28;19902;-85
2022/11/06 02:45:27;;;;;;;;;;;;;;;;;;5038388;28;19925;-83
2022/11/06 02:53:17;;;;;;;;;;;;;;;;;;5593112;23;19998;-83
2022/11/06 02:55:51;;;;;;;;;;;;;;;;;;5002353;28;19918;-84
2022/11/06 02:58:18;;;;;;;;;;;;;;;;;;4985786;28;19972;-82
2022/11/06 03:00:44;;;;;;;;;;;;;;;;;;4985553;28;19909;-83
2022/11/06 03:16:40;;;;;;;;;;;;;;;;;;5666664;23;19911;-83
2022/11/06 03:19:08;;;;;;;;;;;;;;;;;;4970078;28;19918;-83
2022/11/06 03:21:34;;;;;;;;;;;;;;;;;;5002421;28;20152;-85
2022/11/06 03:24:04;;;;;;;;;;;;;;;;;;4969848;28;19966;-83
2022/11/06 03:40:00;;;;;;;;;;;;;;;;;;5306384;23;19926;-79
2022/11/06 03:42:25;;;;;;;;;;;;;;;;;;4981249;28;19996;-80
2022/11/06 03:44:50;;;;;;;;;;;;;;;;;;4964368;28;19918;-80
2022/11/06 03:47:16;;;;;;;;;;;;;;;;;;4980498;28;19973;-81
2022/11/06 03:49:41;;;;;;;;;;;;;;;;;;4980098;28;19914;-82
2022/11/06 03:52:06;;;;;;;;;;;;;;;;;;4984892;28;19921;-80
2022/11/06 03:54:32;;;;;;;;;;;;;;;;;;4982169;28;20374;-80
2022/11/06 03:56:57;;;;;;;;;;;;;;;;;;4982184;28;19968;-80
2022/11/06 03:59:24;;;;;;;;;;;;;;;;;;4984500;28;19920;-80
2022/11/06 04:01:49;;;;;;;;;;;;;;;;;;4969577;28;19918;-80
2022/11/06 04:04:15;;;;;;;;;;;;;;;;;;4965592;29;20021;-80
2022/11/06 04:06:40;;;;;;;;;;;;;;;;;;4964348;29;19922;-79
2022/11/06 04:14:34;;;;;;;;;;;;;;;;;;4961307;29;19937;-80
2022/11/06 04:16:59;;;;;;;;;;;;;;;;;;4962441;28;19914;-80
2022/11/06 04:19:24;;;;;;;;;;;;;;;;;;4974540;28;20334;-79
2022/11/06 04:21:50;;;;;;;;;;;;;;;;;;4942708;29;19914;-79
2022/11/06 04:26:59;;;;;;;;;;;;;;;;;;4962082;28;19922;-80
2022/11/06 04:29:25;;;;;;;;;;;;;;;;;;4961795;28;19915;-79
2022/11/06 04:31:50;;;;;;;;;;;;;;;;;;4961717;29;19910;-80
2022/11/06 04:34:15;;;;;;;;;;;;;;;;;;4959340;28;19980;-79
2022/11/06 04:36:41;;;;;;;;;;;;;;;;;;4959220;28;19915;-79
2022/11/06 04:39:06;;;;;;;;;;;;;;;;;;4959383;28;20406;-79
2022/11/06 04:41:35;;;;;;;;;;;;;;;;;;4958243;29;19925;-80
2022/11/06 04:44:00;;;;;;;;;;;;;;;;;;4958537;28;20042;-80
2022/11/06 04:46:25;;;;;;;;;;;;;;;;;;4959624;28;20394;-81
2022/11/06 04:48:51;;;;;;;;;;;;;;;;;;4958420;28;19915;-80
2022/11/06 04:51:16;;;;;;;;;;;;;;;;;;4960891;28;19953;-79
2022/11/06 04:53:41;;;;;;;;;;;;;;;;;;4978025;28;20279;-81
2022/11/06 04:56:07;;;;;;;;;;;;;;;;;;4975384;28;19914;-80
2022/11/06 04:58:32;;;;;;;;;;;;;;;;;;4979004;28;19914;-80
2022/11/06 05:00:57;;;;;;;;;;;;;;;;;;4976746;28;20445;-79
2022/11/06 05:03:23;;;;;;;;;;;;;;;;;;4976084;28;19915;-79
2022/11/06 05:05:48;;;;;;;;;;;;;;;;;;4976795;28;19922;-80
2022/11/06 05:08:14;;;;;;;;;;;;;;;;;;4976009;28;19916;-80
2022/11/06 05:10:39;;;;;;;;;;;;;;;;;;4976563;28;19914;-81
2022/11/06 05:13:05;;;;;;;;;;;;;;;;;;4974914;28;20381;-80
2022/11/06 05:15:30;;;;;;;;;;;;;;;;;;4976122;28;19921;-80
2022/11/06 05:17:56;;;;;;;;;;;;;;;;;;4975960;28;19914;-80
2022/11/06 05:20:21;;;;;;;;;;;;;;;;;;4974810;28;20374;-80
2022/11/06 05:23:02;;;;;;;;;;;;;;;;;;4973928;28;19969;-80
2022/11/06 05:25:27;;;;;;;;;;;;;;;;;;4956208;28;19919;-79
2022/11/06 05:27:53;;;;;;;;;;;;;;;;;;4956393;28;20433;-80
2022/11/06 05:30:18;;;;;;;;;;;;;;;;;;4956008;28;20420;-79
2022/11/06 05:32:44;;;;;;;;;;;;;;;;;;4954682;29;19914;-80
2022/11/06 05:35:09;;;;;;;;;;;;;;;;;;4956588;28;19920;-80
2022/11/06 05:37:34;;;;;;;;;;;;;;;;;;4955010;29;19921;-80
2022/11/06 05:40:00;;;;;;;;;;;;;;;;;;4968323;28;19961;-79
2022/11/06 05:42:25;;;;;;;;;;;;;;;;;;4975319;28;19922;-81
2022/11/06 05:44:50;;;;;;;;;;;;;;;;;;4974519;28;19918;-80
2022/11/06 05:47:16;;;;;;;;;;;;;;;;;;4958108;28;20389;-79
2022/11/06 05:49:41;;;;;;;;;;;;;;;;;;4976075;28;19914;-80
2022/11/06 05:52:07;;;;;;;;;;;;;;;;;;4975582;28;20401;-79
2022/11/06 05:54:32;;;;;;;;;;;;;;;;;;4976128;28;19915;-80
2022/11/06 05:56:57;;;;;;;;;;;;;;;;;;4975047;28;19915;-79
2022/11/06 05:59:23;;;;;;;;;;;;;;;;;;4977171;28;20271;-79
2022/11/06 06:01:48;;;;;;;;;;;;;;;;;;4960964;28;19918;-77
2022/11/06 06:04:13;;;;;;;;;;;;;;;;;;4974636;28;20079;-79
2022/11/06 06:06:39;;;;;;;;;;;;;;;;;;4972776;28;20281;-77
2022/11/06 06:09:04;;;;;;;;;;;;;;;;;;4974399;28;19968;-80
2022/11/06 06:11:29;;;;;;;;;;;;;;;;;;4973360;28;19914;-80
2022/11/06 06:13:55;;;;;;;;;;;;;;;;;;4956564;28;19914;-81
2022/11/06 06:16:23;;;;;;;;;;;;;;;;;;4973081;28;19922;-80
2022/11/06 06:18:48;;;;;;;;;;;;;;;;;;4973684;28;19914;-78
2022/11/06 06:21:14;;;;;;;;;;;;;;;;;;4972335;28;20321;-80
2022/11/06 06:23:39;;;;;;;;;;;;;;;;;;4973382;28;20400;-79
2022/11/06 06:26:05;;;;;;;;;;;;;;;;;;4972477;28;19918;-80
2022/11/06 06:28:30;;;;;;;;;;;;;;;;;;4971979;28;19914;-80
2022/11/06 06:30:56;;;;;;;;;;;;;;;;;;4936965;29;20338;-80
2022/11/06 06:33:21;;;;;;;;;;;;;;;;;;4952993;29;19917;-80
2022/11/06 06:35:46;;;;;;;;;;;;;;;;;;4953319;29;20305;-80
2022/11/06 06:38:12;;;;;;;;;;;;;;;;;;4967346;28;19970;-82
2022/11/06 06:40:37;;;;;;;;;;;;;;;;;;4963115;28;19927;-81
2022/11/06 06:43:03;;;;;;;;;;;;;;;;;;4956050;28;20294;-81
2022/11/06 06:45:28;;;;;;;;;;;;;;;;;;4965758;28;20409;-81
2022/11/06 06:47:53;;;;;;;;;;;;;;;;;;4954808;29;19915;-79
2022/11/06 06:50:19;;;;;;;;;;;;;;;;;;4955256;28;19922;-81
2022/11/06 06:52:44;;;;;;;;;;;;;;;;;;4956595;28;19919;-81
2022/11/06 06:55:10;;;;;;;;;;;;;;;;;;4957446;28;19925;-80
2022/11/06 06:57:35;;;;;;;;;;;;;;;;;;4958293;28;20395;-81
2022/11/06 07:00:00;;;;;;;;;;;;;;;;;;4960038;28;20285;-80
2022/11/06 07:02:26;;;;;;;;;;;;;;;;;;4968372;28;20400;-80
2022/11/06 07:04:51;;;;;;;;;;;;;;;;;;4962203;28;19966;-81
2022/11/06 07:07:16;;;;;;;;;;;;;;;;;;4962621;29;19961;-81
2022/11/06 07:09:42;;;;;;;;;;;;;;;;;;4961234;28;19922;-80
2022/11/06 07:12:07;;;;;;;;;;;;;;;;;;4927727;29;19922;-81
2022/11/06 07:14:33;;;;;;;;;;;;;;;;;;4973439;28;19937;-81
2022/11/06 07:16:58;;;;;;;;;;;;;;;;;;4942989;29;20428;-79
2022/11/06 07:19:23;;;;;;;;;;;;;;;;;;4965737;28;19965;-81
2022/11/06 07:21:49;;;;;;;;;;;;;;;;;;4977851;28;19920;-80
2022/11/06 07:24:16;;;;;;;;;;;;;;;;;;4979619;28;19918;-80
2022/11/06 07:26:42;;;;;;;;;;;;;;;;;;4976040;28;19961;-80
2022/11/06 07:29:07;;;;;;;;;;;;;;;;;;4977036;28;19914;-80
2022/11/06 07:31:33;;;;;;;;;;;;;;;;;;4960784;28;19957;-80
2022/11/06 07:33:58;;;;;;;;;;;;;;;;;;4976680;28;19914;-80
2022/11/06 07:36:23;;;;;;;;;;;;;;;;;;4977295;28;19954;-79
2022/11/06 07:38:49;;;;;;;;;;;;;;;;;;4944015;28;20325;-80
2022/11/06 07:41:14;;;;;;;;;;;;;;;;;;4948493;29;20045;-81
2022/11/06 07:43:40;;;;;;;;;;;;;;;;;;4958449;29;19914;-80
2022/11/06 07:46:05;;;;;;;;;;;;;;;;;;4963266;28;20424;-80
2022/11/06 07:48:30;;;;;;;;;;;;;;;;;;4941607;28;20297;-81
2022/11/06 07:50:56;;;;;;;;;;;;;;;;;;4958486;28;19962;-79
2022/11/06 07:53:21;;;;;;;;;;;;;;;;;;4969397;28;19916;-83
2022/11/06 07:55:47;;;;;;;;;;;;;;;;;;4950386;29;19915;-82
2022/11/06 07:58:12;;;;;;;;;;;;;;;;;;4965095;29;19921;-80
2022/11/06 08:00:38;;;;;;;;;;;;;;;;;;4967128;28;20433;-81
2022/11/06 08:03:03;;;;;;;;;;;;;;;;;;4951300;29;19985;-81
2022/11/06 08:05:28;;;;;;;;;;;;;;;;;;4969403;28;20334;-83
2022/11/06 08:07:54;;;;;;;;;;;;;;;;;;4968634;28;19914;-81
2022/11/06 08:10:19;;;;;;;;;;;;;;;;;;4977870;28;20397;-81
2022/11/06 08:12:45;;;;;;;;;;;;;;;;;;4936587;29;19915;-82
2022/11/06 08:15:10;;;;;;;;;;;;;;;;;;4951324;29;19965;-81
2022/11/06 08:17:36;;;;;;;;;;;;;;;;;;4966756;28;19920;-80
2022/11/06 08:20:01;;;;;;;;;;;;;;;;;;4967011;28;20313;-81
2022/11/06 08:22:27;;;;;;;;;;;;;;;;;;4932436;29;19915;-80
2022/11/06 08:24:52;;;;;;;;;;;;;;;;;;4961099;29;19922;-81
2022/11/06 08:27:18;;;;;;;;;;;;;;;;;;4985101;28;19902;-82
2022/11/06 08:29:43;;;;;;;;;;;;;;;;;;4973574;28;19938;-82
2022/11/06 08:32:09;;;;;;;;;;;;;;;;;;4987699;28;19918;-81
2022/11/06 08:34:35;;;;;;;;;;;;;;;;;;4988405;28;20376;-81
2022/11/06 08:37:00;;;;;;;;;;;;;;;;;;4988002;28;20293;-82
2022/11/06 08:39:25;;;;;;;;;;;;;;;;;;4970288;28;19918;-81
2022/11/06 08:41:51;;;;;;;;;;;;;;;;;;4969567;28;19969;-80
2022/11/06 08:44:16;;;;;;;;;;;;;;;;;;4983604;28;19918;-81
2022/11/06 08:46:42;;;;;;;;;;;;;;;;;;4982290;28;20432;-81
2022/11/06 08:49:07;;;;;;;;;;;;;;;;;;4966473;28;19918;-81
2022/11/06 08:51:33;;;;;;;;;;;;;;;;;;4981247;28;19914;-81
2022/11/06 08:53:58;;;;;;;;;;;;;;;;;;4980040;28;20535;-82
2022/11/06 08:56:24;;;;;;;;;;;;;;;;;;4964037;28;20392;-80
2022/11/06 08:58:49;;;;;;;;;;;;;;;;;;4964242;28;19941;-81
2022/11/06 09:01:14;;;;;;;;;;;;;;;;;;4945736;29;19914;-79
2022/11/06 09:03:40;;;;;;;;;;;;;;;;;;4964557;29;20005;-81
2022/11/06 09:06:05;;;;;;;;;;;;;;;;;;4938027;29;20302;-82
2022/11/06 09:08:31;;;;;;;;;;;;;;;;;;4975604;28;19922;-83
2022/11/06 09:10:57;;;;;;;;;;;;;;;;;;4957359;28;19915;-82
2022/11/06 09:13:23;;;;;;;;;;;;;;;;;;4987549;28;19918;-85
2022/11/06 09:15:49;;;;;;;;;;;;;;;;;;5219282;23;19925;-83
2022/11/06 09:18:17;;;;;;;;;;;;;;;;;;4996473;28;19918;-83
2022/11/06 09:20:46;;;;;;;;;;;;;;;;;;4978160;28;19902;-83
2022/11/06 09:23:19;;;;;;;;;;;;;;;;;;4986517;28;19925;-83
2022/11/06 09:25:44;;;;;;;;;;;;;;;;;;4969197;29;19925;-82
2022/11/06 09:28:10;;;;;;;;;;;;;;;;;;4975178;29;19898;-83
2022/11/06 09:30:39;;;;;;;;;;;;;;;;;;4975398;28;19921;-82
2022/11/06 09:33:05;;;;;;;;;;;;;;;;;;4967006;29;19918;-81
2022/11/06 09:35:31;;;;;;;;;;;;;;;;;;4959524;29;19926;-82
2022/11/06 09:37:56;;;;;;;;;;;;;;;;;;4965418;29;20341;-81
2022/11/06 09:40:21;;;;;;;;;;;;;;;;;;4978616;23;20278;-92
2022/11/06 09:42:47;;;;;;;;;;;;;;;;;;4950098;28;19934;-94
2022/11/06 09:45:12;;;;;;;;;;;;;;;;;;4966638;28;19958;-95
2022/11/06 09:47:37;;;;;;;;;;;;;;;;;;4960283;28;19918;-94
2022/11/06 09:50:03;;;;;;;;;;;;;;;;;;4972942;28;20384;-93
2022/11/06 09:52:28;;;;;;;;;;;;;;;;;;4941267;28;19918;-94
2022/11/06 09:54:54;;;;;;;;;;;;;;;;;;4925306;28;20285;-93
2022/11/06 09:57:19;;;;;;;;;;;;;;;;;;4957463;28;19914;-94
2022/11/06 09:59:45;;;;;;;;;;;;;;;;;;4941095;28;19914;-92
2022/11/06 10:02:10;;;;;;;;;;;;;;;;;;4957036;28;19914;-92
2022/11/06 10:04:36;;;;;;;;;;;;;;;;;;4941079;28;19918;-93
2022/11/06 10:07:01;;;;;;;;;;;;;;;;;;4956613;28;19952;-92
2022/11/06 10:09:27;;;;;;;;;;;;;;;;;;4956500;28;19918;-93
2022/11/06 10:11:52;;;;;;;;;;;;;;;;;;4956877;28;19918;-90
2022/11/06 10:14:18;;;;;;;;;;;;;;;;;;4941930;28;20008;-93
2022/11/06 10:16:43;;;;;;;;;;;;;;;;;;4974558;28;19926;-92
2022/11/06 10:19:08;;;;;;;;;;;;;;;;;;4953059;28;19914;-92
2022/11/06 10:21:34;;;;;;;;;;;;;;;;;;4975660;28;20390;-93
2022/11/06 10:23:59;;;;;;;;;;;;;;;;;;4957786;28;19920;-91
2022/11/06 10:26:25;;;;;;;;;;;;;;;;;;4961143;28;19944;-93
2022/11/06 10:28:50;;;;;;;;;;;;;;;;;;4943932;28;19915;-89
2022/11/06 10:31:16;;;;;;;;;;;;;;;;;;4942575;28;20005;-96
2022/11/06 10:33:41;;;;;;;;;;;;;;;;;;4964204;28;20324;-94
2022/11/06 10:36:06;;;;;;;;;;;;;;;;;;4945869;28;19925;-95
2022/11/06 10:38:32;;;;;;;;;;;;;;;;;;4930516;28;19964;-95
2022/11/06 10:40:57;;;;;;;;;;;;;;;;;;4961174;28;20366;-94
2022/11/06 10:43:23;;;;;;;;;;;;;;;;;;4945746;28;19914;-95
2022/11/06 10:45:48;;;;;;;;;;;;;;;;;;4941446;29;20366;-92
2022/11/06 10:48:14;;;;;;;;;;;;;;;;;;4928916;28;20004;-94
2022/11/06 10:50:39;;;;;;;;;;;;;;;;;;4941718;29;20287;-95
2022/11/06 10:53:04;;;;;;;;;;;;;;;;;;4951206;28;20400;-95
2022/11/06 10:55:30;;;;;;;;;;;;;;;;;;4941555;29;19918;-96
2022/11/06 10:57:55;;;;;;;;;;;;;;;;;;4942385;28;19961;-95
2022/11/06 11:00:21;;;;;;;;;;;;;;;;;;4940136;28;19982;-96
2022/11/06 11:02:46;;;;;;;;;;;;;;;;;;4916746;28;19914;-96
2022/11/06 11:05:12;;;;;;;;;;;;;;;;;;4944285;28;19929;-95
2022/11/06 11:07:37;;;;;;;;;;;;;;;;;;4960142;28;20280;-95
2022/11/06 11:10:03;;;;;;;;;;;;;;;;;;4943683;28;19914;-94
2022/11/06 11:12:28;;;;;;;;;;;;;;;;;;4944262;28;19921;-95
2022/11/06 11:14:54;;;;;;;;;;;;;;;;;;4940426;28;20170;-95
2022/11/06 11:17:20;;;;;;;;;;;;;;;;;;4937648;28;19921;-96
2022/11/06 11:19:45;;;;;;;;;;;;;;;;;;4960754;28;19930;-95
2022/11/06 11:22:14;;;;;;;;;;;;;;;;;;4929382;28;20049;-95
2022/11/06 11:24:39;;;;;;;;;;;;;;;;;;4977192;28;19961;-91
2022/11/06 11:27:05;;;;;;;;;;;;;;;;;;4928611;28;19914;-94
2022/11/06 11:29:31;;;;;;;;;;;;;;;;;;4940655;29;19918;-94
2022/11/06 11:31:57;;;;;;;;;;;;;;;;;;4940598;28;20008;-92
2022/11/06 11:34:22;;;;;;;;;;;;;;;;;;4941553;28;19953;-93
2022/11/06 11:36:48;;;;;;;;;;;;;;;;;;4943610;28;19914;-93
2022/11/06 11:39:13;;;;;;;;;;;;;;;;;;4940060;29;19922;-93
2022/11/06 11:41:38;;;;;;;;;;;;;;;;;;4938303;28;19914;-93
2022/11/06 11:44:04;;;;;;;;;;;;;;;;;;4942645;28;19914;-93
2022/11/06 11:46:29;;;;;;;;;;;;;;;;;;4942833;28;19914;-93
2022/11/06 11:48:55;;;;;;;;;;;;;;;;;;4943338;28;19917;-93
2022/11/06 11:51:20;;;;;;;;;;;;;;;;;;4939714;29;19921;-95
2022/11/06 11:53:46;;;;;;;;;;;;;;;;;;4939805;28;20269;-95
2022/11/06 11:56:11;;;;;;;;;;;;;;;;;;4959249;28;19914;-93
2022/11/06 11:58:37;;;;;;;;;;;;;;;;;;4943367;28;19922;-96
2022/11/06 12:01:02;;;;;;;;;;;;;;;;;;4959598;28;20025;-95
2022/11/06 12:03:28;;;;;;;;;;;;;;;;;;4959211;28;20350;-95
2022/11/06 12:05:53;;;;;;;;;;;;;;;;;;4976269;28;19929;-95
2022/11/06 12:08:21;;;;;;;;;;;;;;;;;;4943473;28;20373;-94
2022/11/06 12:10:46;;;;;;;;;;;;;;;;;;4976420;28;19914;-96
2022/11/06 12:13:12;;;;;;;;;;;;;;;;;;4975996;28;19993;-96
2022/11/06 12:15:37;;;;;;;;;;;;;;;;;;4975825;28;20396;-95
2022/11/06 12:18:03;;;;;;;;;;;;;;;;;;4976266;28;20293;-93
2022/11/06 12:20:28;;;;;;;;;;;;;;;;;;4943168;28;19925;-95
2022/11/06 12:22:54;;;;;;;;;;;;;;;;;;4976768;28;19914;-94
2022/11/06 12:25:19;;;;;;;;;;;;;;;;;;4947258;29;19918;-93
2022/11/06 12:27:45;;;;;;;;;;;;;;;;;;4940333;28;19921;-93
2022/11/06 12:30:11;;;;;;;;;;;;;;;;;;4927219;28;19921;-78
2022/11/06 12:32:36;;;;;;;;;;;;;;;;;;4976768;28;19925;-87
2022/11/06 12:35:01;;;;;;;;;;;;;;;;;;4958334;28;19914;-81
2022/11/06 12:37:27;;;;;;;;;;;;;;;;;;4956880;28;20381;-79
2022/11/06 12:39:52;;;;;;;;;;;;;;;;;;4973519;28;20358;-83
2022/11/06 12:42:18;;;;;;;;;;;;;;;;;;4956787;28;19914;-82
2022/11/06 12:44:43;;;;;;;;;;;;;;;;;;4955679;28;19969;-81
2022/11/06 12:47:09;;;;;;;;;;;;;;;;;;4977166;28;19914;-81
2022/11/06 12:49:34;;;;;;;;;;;;;;;;;;4968632;28;20330;-82
2022/11/06 12:52:00;;;;;;;;;;;;;;;;;;4941634;28;19999;-83
2022/11/06 12:54:25;;;;;;;;;;;;;;;;;;4974650;28;19976;-81
2022/11/06 12:56:51;;;;;;;;;;;;;;;;;;4942354;28;19950;-80
2022/11/06 12:59:16;;;;;;;;;;;;;;;;;;4977914;28;19914;-80
2022/11/06 13:01:42;;;;;;;;;;;;;;;;;;4979379;28;19957;-86
2022/11/06 13:04:07;;;;;;;;;;;;;;;;;;4955803;28;19929;-88
2022/11/06 13:06:32;;;;;;;;;;;;;;;;;;4953737;28;19914;-86
2022/11/06 13:08:58;;;;;;;;;;;;;;;;;;4957456;28;19945;-87
2022/11/06 13:11:23;;;;;;;;;;;;;;;;;;4986467;28;19914;-84
2022/11/06 13:13:49;;;;;;;;;;;;;;;;;;4932562;28;21174;-86
2022/11/06 13:16:14;;;;;;;;;;;;;;;;;;4937344;28;19975;-84
2022/11/06 13:18:41;;;;;;;;;;;;;;;;;;4970756;28;20359;-86
2022/11/06 13:21:07;;;;;;;;;;;;;;;;;;4953817;28;19914;-86
2022/11/06 13:23:32;;;;;;;;;;;;;;;;;;4952040;28;19953;-87
2022/11/06 13:25:58;;;;;;;;;;;;;;;;;;4966633;28;19914;-89
2022/11/06 13:28:24;;;;;;;;;;;;;;;;;;4951104;28;19925;-86
2022/11/06 13:30:49;;;;;;;;;;;;;;;;;;4980114;28;19957;-84
2022/11/06 13:33:15;;;;;;;;;;;;;;;;;;4962114;28;19953;-85
2022/11/06 13:35:40;;;;;;;;;;;;;;;;;;4943722;28;19914;-85
2022/11/06 13:38:06;;;;;;;;;;;;;;;;;;4944419;28;19968;-86
2022/11/06 13:40:31;;;;;;;;;;;;;;;;;;4959279;28;20349;-84
2022/11/06 13:42:56;;;;;;;;;;;;;;;;;;4959366;28;19926;-87
2022/11/06 13:45:22;;;;;;;;;;;;;;;;;;4940032;29;19967;-85
2022/11/06 13:47:47;;;;;;;;;;;;;;;;;;4941800;28;19941;-85
2022/11/06 13:50:13;;;;;;;;;;;;;;;;;;4939373;29;19922;-87
2022/11/06 13:52:38;;;;;;;;;;;;;;;;;;4973697;28;19914;-86
2022/11/06 13:55:04;;;;;;;;;;;;;;;;;;4942601;28;19937;-85
2022/11/06 13:57:29;;;;;;;;;;;;;;;;;;4934521;28;19921;-84
2022/11/06 13:59:55;;;;;;;;;;;;;;;;;;4942087;28;19968;-83
2022/11/06 14:02:21;;;;;;;;;;;;;;;;;;4973935;28;19914;-84
2022/11/06 14:04:46;;;;;;;;;;;;;;;;;;4938574;29;19914;-85
2022/11/06 14:07:11;;;;;;;;;;;;;;;;;;4939056;29;19922;-86
2022/11/06 14:09:37;;;;;;;;;;;;;;;;;;4923057;29;19918;-84
2022/11/06 14:12:03;;;;;;;;;;;;;;;;;;4928309;28;19937;-85
2022/11/06 14:14:29;;;;;;;;;;;;;;;;;;4942310;28;19949;-85
2022/11/06 14:16:54;;;;;;;;;;;;;;;;;;4974408;28;19969;-86
2022/11/06 14:19:19;;;;;;;;;;;;;;;;;;4957430;28;19918;-85
2022/11/06 14:21:45;;;;;;;;;;;;;;;;;;4959016;28;20131;-85
2022/11/06 14:24:10;;;;;;;;;;;;;;;;;;4942679;28;19914;-86
2022/11/06 14:26:36;;;;;;;;;;;;;;;;;;4928413;28;20267;-87
2022/11/06 14:29:05;;;;;;;;;;;;;;;;;;4945675;29;20391;-83
2022/11/06 14:31:30;;;;;;;;;;;;;;;;;;4954327;28;19992;-87
2022/11/06 14:33:56;;;;;;;;;;;;;;;;;;4942724;28;19968;-87
2022/11/06 14:36:21;;;;;;;;;;;;;;;;;;4933237;29;19921;-76
2022/11/06 14:38:47;;;;;;;;;;;;;;;;;;4915195;28;19918;-77
2022/11/06 14:41:12;;;;;;;;;;;;;;;;;;4939979;28;19966;-76
2022/11/06 14:43:38;;;;;;;;;;;;;;;;;;4969656;28;20215;-78
2022/11/06 14:46:03;;;;;;;;;;;;;;;;;;4955312;28;19918;-78
2022/11/06 14:48:29;;;;;;;;;;;;;;;;;;4939561;28;19918;-81
2022/11/06 14:50:55;;;;;;;;;;;;;;;;;;4937149;29;20346;-86
2022/11/06 14:53:20;;;;;;;;;;;;;;;;;;4951152;28;19969;-86
2022/11/06 14:55:45;;;;;;;;;;;;;;;;;;4955674;28;19914;-86
2022/11/06 14:58:11;;;;;;;;;;;;;;;;;;4936732;29;20298;-86
2022/11/06 15:00:36;;;;;;;;;;;;;;;;;;4929974;28;20060;-86
2022/11/06 15:03:02;;;;;;;;;;;;;;;;;;4940402;28;20325;-86
2022/11/06 15:05:29;;;;;;;;;;;;;;;;;;4956339;28;19926;-86
2022/11/06 15:07:56;;;;;;;;;;;;;;;;;;4936631;29;19993;-86
2022/11/06 15:10:21;;;;;;;;;;;;;;;;;;4924159;28;19915;-86
2022/11/06 15:12:47;;;;;;;;;;;;;;;;;;4962120;28;20076;-87
2022/11/06 15:15:12;;;;;;;;;;;;;;;;;;4955003;28;19910;-87
2022/11/06 15:17:39;;;;;;;;;;;;;;;;;;4956854;28;19918;-86
2022/11/06 15:20:05;;;;;;;;;;;;;;;;;;4959965;28;19920;-87
2022/11/06 15:22:30;;;;;;;;;;;;;;;;;;4974855;28;19914;-86
2022/11/06 15:24:56;;;;;;;;;;;;;;;;;;4942994;28;20013;-86
2022/11/06 15:27:21;;;;;;;;;;;;;;;;;;4943027;28;19969;-85
2022/11/06 15:29:47;;;;;;;;;;;;;;;;;;4961589;28;19984;-86
2022/11/06 15:32:12;;;;;;;;;;;;;;;;;;4944930;28;19914;-86
2022/11/06 15:34:38;;;;;;;;;;;;;;;;;;4929264;28;19921;-86
2022/11/06 15:37:03;;;;;;;;;;;;;;;;;;4959182;28;19921;-87
2022/11/06 15:41:58;;;;;;;;;;;;;;;;;;4916404;29;19963;-88
2022/11/06 15:44:23;;;;;;;;;;;;;;;;;;4915118;29;20394;-87
2022/11/06 15:46:49;;;;;;;;;;;;;;;;;;4918386;29;19915;-86
2022/11/06 15:49:14;;;;;;;;;;;;;;;;;;4886732;29;20298;-87
2022/11/06 15:51:40;;;;;;;;;;;;;;;;;;4937372;29;20409;-88
2022/11/06 15:54:05;;;;;;;;;;;;;;;;;;4938207;29;20362;-85
2022/11/06 15:56:33;;;;;;;;;;;;;;;;;;4936461;29;21589;-87
2022/11/06 15:58:58;;;;;;;;;;;;;;;;;;4892827;29;19966;-87
2022/11/06 16:01:23;;;;;;;;;;;;;;;;;;4908043;29;19921;-86
2022/11/06 16:03:49;;;;;;;;;;;;;;;;;;4911184;29;19915;-86
2022/11/06 16:06:14;;;;;;;;;;;;;;;;;;4909524;29;20318;-85
2022/11/06 16:08:39;;;;;;;;;;;;;;;;;;4908409;29;20030;-88
2022/11/06 16:11:05;;;;;;;;;;;;;;;;;;4939297;29;20394;-86
2022/11/06 16:13:30;;;;;;;;;;;;;;;;;;4938710;29;20383;-85
2022/11/06 16:15:57;;;;;;;;;;;;;;;;;;4921959;29;20354;-87
2022/11/06 16:18:23;;;;;;;;;;;;;;;;;;4938416;29;19938;-89
2022/11/06 16:20:48;;;;;;;;;;;;;;;;;;4937267;29;20379;-86
2022/11/06 16:23:13;;;;;;;;;;;;;;;;;;4938247;29;20340;-89
2022/11/06 16:25:39;;;;;;;;;;;;;;;;;;4944464;29;20005;-94
2022/11/06 16:28:04;;;;;;;;;;;;;;;;;;4896293;29;20371;-94
2022/11/06 16:30:32;;;;;;;;;;;;;;;;;;4893874;29;20276;-94
2022/11/06 16:32:58;;;;;;;;;;;;;;;;;;4901385;29;19915;-95
2022/11/06 16:35:23;;;;;;;;;;;;;;;;;;4944118;29;19920;-94
2022/11/06 16:37:48;;;;;;;;;;;;;;;;;;4913258;29;19922;-93
2022/11/06 16:40:14;;;;;;;;;;;;;;;;;;4897084;29;19954;-94
2022/11/06 16:42:42;;;;;;;;;;;;;;;;;;4935542;29;19918;-93
2022/11/06 16:45:08;;;;;;;;;;;;;;;;;;4937675;29;19915;-94
2022/11/06 16:47:33;;;;;;;;;;;;;;;;;;4927876;29;19914;-89
2022/11/06 16:50:00;;;;;;;;;;;;;;;;;;4887526;29;19911;-78
2022/11/06 16:52:26;;;;;;;;;;;;;;;;;;4936145;29;19922;-79
2022/11/06 16:54:51;;;;;;;;;;;;;;;;;;4935908;29;19915;-80
2022/11/06 16:57:17;;;;;;;;;;;;;;;;;;4918674;29;20294;-80
2022/11/06 16:59:42;;;;;;;;;;;;;;;;;;4918701;29;19918;-81
2022/11/06 17:02:07;;;;;;;;;;;;;;;;;;4936315;29;19915;-87
2022/11/06 17:04:33;;;;;;;;;;;;;;;;;;4935703;29;19919;-88
2022/11/06 17:06:58;;;;;;;;;;;;;;;;;;4902927;29;20013;-87
2022/11/06 17:09:24;;;;;;;;;;;;;;;;;;4918294;29;20332;-87
2022/11/06 17:11:49;;;;;;;;;;;;;;;;;;4918739;29;19934;-88
2022/11/06 17:14:15;;;;;;;;;;;;;;;;;;4886939;29;19910;-88
2022/11/06 17:16:40;;;;;;;;;;;;;;;;;;4918616;29;20001;-86
2022/11/06 17:19:05;;;;;;;;;;;;;;;;;;4918962;29;19915;-88
2022/11/06 17:21:31;;;;;;;;;;;;;;;;;;4920207;29;20287;-87
2022/11/06 17:23:56;;;;;;;;;;;;;;;;;;4903664;29;19915;-85
2022/11/06 17:26:22;;;;;;;;;;;;;;;;;;4917746;29;20409;-85
2022/11/06 17:28:47;;;;;;;;;;;;;;;;;;4919035;29;19950;-86
2022/11/06 17:31:13;;;;;;;;;;;;;;;;;;4887488;29;20434;-89
2022/11/06 17:33:38;;;;;;;;;;;;;;;;;;4886886;29;19922;-86
2022/11/06 17:36:04;;;;;;;;;;;;;;;;;;4902580;29;19957;-88
2022/11/06 17:38:57;;;;;;;;;;;;;;;;;;4849369;29;20332;-86
2022/11/06 17:41:29;;;;;;;;;;;;;;;;;;4845376;29;20020;-87
2022/11/06 17:43:55;;;;;;;;;;;;;;;;;;4832059;29;19964;-83
2022/11/06 17:46:20;;;;;;;;;;;;;;;;;;4875938;29;19915;-81
2022/11/06 17:48:46;;;;;;;;;;;;;;;;;;4876171;29;19916;-80
2022/11/06 17:53:55;;;;;;;;;;;;;;;;;;4860553;29;19947;-81
2022/11/06 17:56:20;;;;;;;;;;;;;;;;;;4875874;29;20007;-79
2022/11/06 17:58:46;;;;;;;;;;;;;;;;;;4876232;29;20434;-80
2022/11/06 18:01:11;;;;;;;;;;;;;;;;;;4876062;29;19919;-81
2022/11/06 18:03:37;;;;;;;;;;;;;;;;;;4875722;29;20287;-81
2022/11/06 18:06:03;;;;;;;;;;;;;;;;;;4875964;29;20383;-78
2022/11/06 18:08:28;;;;;;;;;;;;;;;;;;4875986;29;19934;-83
2022/11/06 18:10:54;;;;;;;;;;;;;;;;;;4875940;29;20026;-80
2022/11/06 18:13:20;;;;;;;;;;;;;;;;;;4876151;29;19968;-81
2022/11/06 18:15:45;;;;;;;;;;;;;;;;;;4901323;29;19918;-81
2022/11/06 18:18:10;;;;;;;;;;;;;;;;;;4934954;29;19973;-82
2022/11/06 18:20:36;;;;;;;;;;;;;;;;;;4902067;29;20418;-81
2022/11/06 18:23:01;;;;;;;;;;;;;;;;;;4917882;29;19923;-80
2022/11/06 18:25:27;;;;;;;;;;;;;;;;;;4917738;29;19970;-80
2022/11/06 18:27:52;;;;;;;;;;;;;;;;;;4934911;29;20401;-81
2022/11/06 18:30:18;;;;;;;;;;;;;;;;;;4934745;29;19911;-80
2022/11/06 18:32:44;;;;;;;;;;;;;;;;;;4917660;29;20393;-80
2022/11/06 18:35:09;;;;;;;;;;;;;;;;;;4934680;29;19915;-80
2022/11/06 18:37:34;;;;;;;;;;;;;;;;;;4934793;29;20029;-80
2022/11/06 18:40:00;;;;;;;;;;;;;;;;;;4888291;29;19923;-92
2022/11/06 18:42:25;;;;;;;;;;;;;;;;;;4911872;29;19914;-91
2022/11/06 18:44:54;;;;;;;;;;;;;;;;;;4926550;29;19946;-88
2022/11/06 18:47:19;;;;;;;;;;;;;;;;;;4927218;29;19922;-90